Time;durP1;ratioP1;P1;durP2;ratioP2;P2;SDS_P1;SDS_P2;PMS_P1;PMS_P2;Temp;Humidity;BMP_temperature;BMP_pressure;BME280_temperature;BME280_humidity;BME280_pressure;Samples;Min_cycle;Max_cycle;Signal;HPM_P1;HPM_P2
2021/05/20 00:00:33;;;;;;;1.27;1.13;;;12.20;99.90;;;;;;5088522;28;20203;-64
2021/05/20 00:03:00;;;;;;;1.10;1.00;;;12.20;99.90;;;;;;5088059;28;20291;-64
2021/05/20 00:05:26;;;;;;;1.67;1.37;;;12.20;99.90;;;;;;5088008;28;20199;-64
2021/05/20 00:07:54;;;;;;;1.50;1.30;;;12.10;99.90;;;;;;5088377;28;20723;-65
2021/05/20 00:10:20;;;;;;;1.53;1.43;;;12.10;99.90;;;;;;5088731;28;20687;-64
2021/05/20 00:12:49;;;;;;;1.30;1.20;;;12.10;99.90;;;;;;5088499;28;20690;-64
2021/05/20 00:15:16;;;;;;;1.43;1.40;;;12.10;99.90;;;;;;5089150;28;20200;-63
2021/05/20 00:17:44;;;;;;;3.03;1.43;;;12.10;99.90;;;;;;5088003;28;20314;-63
2021/05/20 00:20:11;;;;;;;2.53;1.47;;;12.00;99.90;;;;;;5077909;28;20210;-63
2021/05/20 00:22:38;;;;;;;1.87;1.40;;;12.00;99.90;;;;;;5080608;28;20694;-63
2021/05/20 00:25:07;;;;;;;1.20;1.20;;;12.00;99.90;;;;;;5088503;28;20660;-64
2021/05/20 00:27:33;;;;;;;4.67;2.10;;;12.00;99.90;;;;;;5088575;28;20280;-63
2021/05/20 00:30:00;;;;;;;2.33;1.37;;;12.00;99.90;;;;;;5070978;28;20220;-64
2021/05/20 00:32:26;;;;;;;2.07;1.50;;;12.00;99.90;;;;;;5069571;28;20220;-62
2021/05/20 00:34:52;;;;;;;1.57;1.47;;;12.00;99.90;;;;;;5087753;28;20287;-63
2021/05/20 00:37:19;;;;;;;1.47;1.37;;;12.00;99.90;;;;;;5088504;28;20212;-64
2021/05/20 00:39:45;;;;;;;0.97;0.97;;;11.90;99.90;;;;;;5088153;28;20242;-64
2021/05/20 00:42:14;;;;;;;1.30;1.20;;;12.00;99.90;;;;;;5087908;28;20236;-64
2021/05/20 00:44:59;;;;;;;1.03;0.97;;;11.90;99.90;;;;;;5088640;28;20276;-63
2021/05/20 00:47:27;;;;;;;2.90;1.10;;;11.90;99.90;;;;;;5084355;28;20273;-63
2021/05/20 00:49:54;;;;;;;1.53;1.20;;;11.90;99.90;;;;;;5074622;28;20565;-63
2021/05/20 00:52:20;;;;;;;1.83;1.30;;;12.00;99.90;;;;;;5091340;28;20647;-64
2021/05/20 00:54:50;;;;;;;1.07;0.97;;;11.90;99.90;;;;;;5092909;28;20204;-64
2021/05/20 00:57:18;;;;;;;0.90;0.90;;;11.90;99.90;;;;;;5092595;28;20329;-64
2021/05/20 00:59:45;;;;;;;1.00;1.00;;;11.80;99.90;;;;;;5097293;28;20196;-64
2021/05/20 01:02:12;;;;;;;1.23;1.17;;;11.80;99.90;;;;;;5091458;28;20219;-64
2021/05/20 01:04:39;;;;;;;1.10;1.10;;;11.80;99.90;;;;;;5091411;28;20214;-64
2021/05/20 01:07:06;;;;;;;0.93;0.93;;;11.80;99.90;;;;;;5085431;28;20204;-64
2021/05/20 01:09:35;;;;;;;1.33;1.23;;;11.80;99.90;;;;;;5092192;28;20258;-64
2021/05/20 01:12:01;;;;;;;1.30;1.20;;;11.80;99.90;;;;;;5091669;28;20198;-64
2021/05/20 01:14:29;;;;;;;1.20;1.20;;;11.80;99.90;;;;;;5092576;28;20204;-63
2021/05/20 01:16:55;;;;;;;1.30;1.30;;;11.80;99.90;;;;;;5092936;28;20253;-62
2021/05/20 01:19:22;;;;;;;1.20;1.10;;;11.80;99.90;;;;;;5087518;28;20306;-62
2021/05/20 01:21:49;;;;;;;1.37;1.27;;;11.70;99.90;;;;;;5090835;28;20275;-62
2021/05/20 01:24:15;;;;;;;1.23;1.13;;;11.60;99.90;;;;;;5091715;28;20197;-63
2021/05/20 01:26:42;;;;;;;3.57;1.50;;;11.70;99.90;;;;;;5091601;28;20201;-63
2021/05/20 01:29:08;;;;;;;2.13;1.10;;;11.70;99.90;;;;;;5091825;28;20212;-63
2021/05/20 01:31:35;;;;;;;1.30;1.20;;;11.70;99.90;;;;;;5073730;28;20206;-63
2021/05/20 01:34:02;;;;;;;1.27;1.17;;;11.70;99.90;;;;;;5089987;28;20192;-63
2021/05/20 01:36:29;;;;;;;1.30;1.20;;;11.70;99.90;;;;;;5091933;28;20193;-63
2021/05/20 01:38:59;;;;;;;1.70;1.30;;;11.60;99.90;;;;;;5091858;28;20204;-62
2021/05/20 01:41:26;;;;;;;1.13;1.10;;;11.60;99.90;;;;;;5091223;28;20618;-63
2021/05/20 01:43:53;;;;;;;1.43;1.33;;;11.60;99.90;;;;;;5091030;28;20207;-64
2021/05/20 01:46:19;;;;;;;1.50;1.40;;;11.60;99.90;;;;;;5091703;28;20212;-64
2021/05/20 01:48:48;;;;;;;1.47;1.00;;;11.60;99.90;;;;;;5070642;28;20208;-64
2021/05/20 01:51:16;;;;;;;1.20;1.10;;;11.60;99.90;;;;;;5091339;28;20220;-63
2021/05/20 01:53:48;;;;;;;1.93;1.20;;;11.50;99.90;;;;;;5081391;28;20220;-63
2021/05/20 01:56:17;;;;;;;1.20;1.10;;;11.50;99.90;;;;;;5091139;28;20261;-63
2021/05/20 01:58:44;;;;;;;1.40;1.30;;;11.50;99.90;;;;;;5091599;28;20582;-64
2021/05/20 02:01:11;;;;;;;1.33;1.10;;;11.50;99.90;;;;;;5072785;28;20569;-64
2021/05/20 02:03:38;;;;;;;1.00;1.00;;;11.50;99.90;;;;;;5089549;28;20249;-64
2021/05/20 02:06:06;;;;;;;1.30;1.20;;;11.50;99.90;;;;;;5090562;28;20650;-64
2021/05/20 02:08:34;;;;;;;2.67;1.10;;;11.50;99.90;;;;;;5073386;28;20298;-64
2021/05/20 02:11:01;;;;;;;1.10;1.10;;;11.40;99.90;;;;;;5091030;28;20198;-64
2021/05/20 02:13:28;;;;;;;1.40;1.30;;;11.50;99.90;;;;;;5091245;28;20193;-64
2021/05/20 02:15:55;;;;;;;1.50;1.40;;;11.50;99.90;;;;;;5090672;28;20586;-63
2021/05/20 02:18:21;;;;;;;1.30;1.30;;;11.40;99.90;;;;;;5090568;28;20249;-63
2021/05/20 02:20:48;;;;;;;1.43;1.33;;;11.40;99.90;;;;;;5087505;28;20711;-63
2021/05/20 02:23:18;;;;;;;1.50;1.30;;;11.40;99.90;;;;;;5083757;28;20607;-63
2021/05/20 02:25:45;;;;;;;1.60;1.50;;;11.30;99.90;;;;;;5087886;28;20196;-63
2021/05/20 02:28:11;;;;;;;1.00;1.00;;;11.30;99.90;;;;;;5088567;28;20639;-64
2021/05/20 02:30:39;;;;;;;1.63;1.47;;;11.30;99.90;;;;;;5090253;28;20212;-64
2021/05/20 02:33:06;;;;;;;1.30;1.20;;;11.30;99.90;;;;;;5090338;28;20191;-64
2021/05/20 02:35:32;;;;;;;1.30;1.20;;;11.30;99.90;;;;;;5088647;28;20204;-64
2021/05/20 02:37:59;;;;;;;1.60;1.50;;;11.30;99.90;;;;;;5091224;28;20199;-64
2021/05/20 02:40:26;;;;;;;1.60;1.50;;;11.30;99.90;;;;;;5090422;28;20196;-64
2021/05/20 02:42:52;;;;;;;1.73;1.63;;;11.30;99.90;;;;;;5089990;28;20565;-63
2021/05/20 02:45:20;;;;;;;1.50;1.40;;;11.30;99.90;;;;;;5090000;28;20226;-64
2021/05/20 02:47:49;;;;;;;1.53;1.43;;;11.30;99.90;;;;;;5090091;28;20195;-63
2021/05/20 02:50:16;;;;;;;1.87;1.60;;;11.20;99.90;;;;;;5088844;28;20224;-63
2021/05/20 02:52:44;;;;;;;1.37;1.33;;;11.20;99.90;;;;;;5089948;28;20188;-62
2021/05/20 02:55:12;;;;;;;1.50;1.40;;;11.20;99.90;;;;;;5089921;28;20199;-64
2021/05/20 02:57:41;;;;;;;1.60;1.50;;;11.20;99.90;;;;;;5090000;28;20294;-62
2021/05/20 03:00:10;;;;;;;1.30;1.20;;;11.20;99.90;;;;;;5090043;28;20218;-63
2021/05/20 03:02:36;;;;;;;1.40;1.30;;;11.20;99.90;;;;;;5089090;28;20207;-62
2021/05/20 03:05:05;;;;;;;2.20;1.60;;;11.20;99.90;;;;;;5077885;28;20190;-63
2021/05/20 03:07:31;;;;;;;1.40;1.30;;;11.20;99.90;;;;;;5086591;28;20226;-64
2021/05/20 03:09:58;;;;;;;1.60;1.50;;;11.30;99.90;;;;;;5090256;28;20255;-63
2021/05/20 03:12:24;;;;;;;1.40;1.30;;;11.30;99.90;;;;;;5089194;28;20367;-63
2021/05/20 03:14:50;;;;;;;1.30;1.20;;;11.30;99.90;;;;;;5077684;28;20220;-63
2021/05/20 03:17:17;;;;;;;1.80;1.70;;;11.30;99.90;;;;;;5089885;28;20204;-63
2021/05/20 03:19:44;;;;;;;1.63;1.53;;;11.30;99.90;;;;;;5076598;28;20266;-63
2021/05/20 03:22:11;;;;;;;1.87;1.77;;;11.30;99.90;;;;;;5089308;28;20207;-63
2021/05/20 03:24:37;;;;;;;2.33;1.50;;;11.40;99.90;;;;;;5072891;28;20305;-63
2021/05/20 03:27:04;;;;;;;1.40;1.30;;;11.30;99.90;;;;;;5089143;28;20190;-64
2021/05/20 03:29:30;;;;;;;1.93;1.77;;;11.40;99.90;;;;;;5071826;28;20227;-64
2021/05/20 03:31:57;;;;;;;2.30;2.10;;;11.40;99.90;;;;;;5089728;28;20197;-63
2021/05/20 03:34:23;;;;;;;1.70;1.60;;;11.30;99.90;;;;;;5088017;28;20194;-63
2021/05/20 03:36:50;;;;;;;1.70;1.53;;;11.30;99.90;;;;;;5089493;28;20204;-64
2021/05/20 03:39:17;;;;;;;1.77;1.43;;;11.30;99.90;;;;;;5089926;28;20197;-64
2021/05/20 03:41:43;;;;;;;2.00;1.40;;;11.40;99.90;;;;;;5089144;28;20307;-64
2021/05/20 03:44:10;;;;;;;2.20;1.87;;;11.40;99.90;;;;;;5088025;28;20650;-64
2021/05/20 03:46:36;;;;;;;1.90;1.70;;;11.40;99.90;;;;;;5080439;28;20200;-64
2021/05/20 03:49:03;;;;;;;1.20;1.20;;;11.50;99.90;;;;;;5088110;28;20220;-64
2021/05/20 03:51:30;;;;;;;1.60;1.50;;;11.50;99.90;;;;;;5089443;28;20286;-64
2021/05/20 03:53:57;;;;;;;1.83;1.70;;;11.50;99.90;;;;;;5089007;28;20654;-63
2021/05/20 03:56:24;;;;;;;1.70;1.60;;;11.50;99.90;;;;;;5089208;28;20195;-63
2021/05/20 03:58:51;;;;;;;2.50;1.73;;;11.60;99.90;;;;;;5089126;28;20291;-64
2021/05/20 04:01:17;;;;;;;3.43;2.07;;;11.60;99.90;;;;;;5089584;28;20568;-63
2021/05/20 04:03:44;;;;;;;3.00;1.80;;;11.60;99.90;;;;;;5087468;28;20188;-63
2021/05/20 04:06:10;;;;;;;2.33;2.00;;;11.60;99.90;;;;;;5088783;28;20221;-63
2021/05/20 04:08:37;;;;;;;1.73;1.63;;;11.60;99.90;;;;;;5089220;28;20195;-63
2021/05/20 04:11:03;;;;;;;2.10;1.63;;;11.70;99.90;;;;;;5089040;28;20220;-64
2021/05/20 04:13:33;;;;;;;1.70;1.60;;;11.70;99.90;;;;;;5088592;28;20199;-63
2021/05/20 04:16:00;;;;;;;1.60;1.50;;;11.80;99.90;;;;;;5089232;28;20287;-63
2021/05/20 04:18:27;;;;;;;1.97;1.87;;;11.80;99.90;;;;;;5088073;28;20198;-63
2021/05/20 04:20:54;;;;;;;1.93;1.80;;;11.80;99.90;;;;;;5081091;28;20567;-63
2021/05/20 04:23:21;;;;;;;1.83;1.73;;;11.90;99.90;;;;;;5076911;28;20193;-63
2021/05/20 04:25:48;;;;;;;1.77;1.67;;;12.00;99.90;;;;;;5088333;28;20647;-63
2021/05/20 04:28:15;;;;;;;1.70;1.60;;;12.00;99.90;;;;;;5087410;28;20608;-65
2021/05/20 04:30:43;;;;;;;2.07;1.90;;;12.00;99.90;;;;;;5088717;28;20213;-62
2021/05/20 04:33:10;;;;;;;1.60;1.50;;;12.10;99.90;;;;;;5087954;28;20232;-63
2021/05/20 04:35:37;;;;;;;2.10;1.80;;;12.10;99.90;;;;;;5087212;28;20272;-63
2021/05/20 04:38:04;;;;;;;1.77;1.60;;;12.20;99.90;;;;;;5088487;28;20203;-63
2021/05/20 04:40:32;;;;;;;1.40;1.30;;;12.20;99.90;;;;;;5088983;28;20215;-64
2021/05/20 04:42:58;;;;;;;1.50;1.40;;;12.30;99.90;;;;;;5073003;28;20647;-63
2021/05/20 04:45:25;;;;;;;1.30;1.20;;;12.40;99.90;;;;;;5088353;28;20291;-63
2021/05/20 04:47:52;;;;;;;1.50;1.40;;;12.50;99.90;;;;;;5088898;28;20295;-64
2021/05/20 04:50:19;;;;;;;1.60;1.50;;;12.60;99.90;;;;;;5087337;28;20234;-64
2021/05/20 04:52:46;;;;;;;1.40;1.30;;;12.60;99.90;;;;;;5088068;28;20191;-64
2021/05/20 04:55:15;;;;;;;1.63;1.50;;;12.70;99.90;;;;;;5087815;28;20971;-63
2021/05/20 04:57:41;;;;;;;1.50;1.40;;;12.80;99.90;;;;;;5088500;28;20235;-64
2021/05/20 05:00:10;;;;;;;1.57;1.30;;;12.90;99.90;;;;;;5088373;28;20202;-63
2021/05/20 05:02:37;;;;;;;1.30;1.30;;;13.00;99.90;;;;;;5088390;28;20203;-62
2021/05/20 05:05:06;;;;;;;2.07;1.60;;;13.10;99.90;;;;;;5086322;28;20204;-64
2021/05/20 05:07:32;;;;;;;1.77;1.67;;;13.20;99.90;;;;;;5077676;28;20192;-64
2021/05/20 05:09:59;;;;;;;1.50;1.40;;;13.30;99.90;;;;;;5088611;28;20220;-63
2021/05/20 05:12:26;;;;;;;1.43;1.33;;;13.40;99.90;;;;;;5088461;28;20227;-63
2021/05/20 05:14:52;;;;;;;1.53;1.40;;;13.50;99.90;;;;;;5087748;28;20223;-63
2021/05/20 05:17:19;;;;;;;1.50;1.20;;;13.50;99.90;;;;;;5088335;28;20209;-63
2021/05/20 05:19:45;;;;;;;1.00;0.90;;;13.70;99.90;;;;;;5080468;28;20191;-65
2021/05/20 05:22:13;;;;;;;1.00;1.00;;;13.80;99.90;;;;;;5087241;28;20221;-63
2021/05/20 05:24:40;;;;;;;1.40;1.20;;;13.90;99.90;;;;;;5087679;28;21054;-64
2021/05/20 05:27:07;;;;;;;1.50;1.40;;;14.00;99.90;;;;;;5067563;28;20687;-64
2021/05/20 05:29:34;;;;;;;1.37;1.27;;;14.10;99.90;;;;;;5088115;28;20304;-64
2021/05/20 05:32:01;;;;;;;1.37;1.30;;;14.10;99.90;;;;;;5088287;28;20207;-64
2021/05/20 05:34:27;;;;;;;1.60;1.13;;;14.30;99.90;;;;;;5068684;28;20213;-63
2021/05/20 05:36:54;;;;;;;1.87;1.40;;;14.40;99.90;;;;;;5088439;28;20293;-64
2021/05/20 05:39:21;;;;;;;1.10;1.10;;;14.60;99.90;;;;;;5073026;28;20639;-63
2021/05/20 05:41:50;;;;;;;1.70;1.60;;;14.80;99.90;;;;;;5092258;28;20272;-63
2021/05/20 05:44:18;;;;;;;1.50;1.40;;;14.90;99.90;;;;;;5089501;28;20198;-62
2021/05/20 05:46:44;;;;;;;1.10;1.10;;;15.00;99.90;;;;;;5092102;28;20201;-64
2021/05/20 05:49:14;;;;;;;1.20;1.20;;;15.10;99.90;;;;;;5089352;28;20196;-63
2021/05/20 05:51:42;;;;;;;2.53;1.30;;;15.30;99.90;;;;;;5091873;28;20667;-63
2021/05/20 05:54:09;;;;;;;1.87;1.20;;;15.40;99.90;;;;;;5090580;28;20754;-63
2021/05/20 05:56:37;;;;;;;1.10;1.10;;;15.60;99.90;;;;;;5090869;28;20298;-63
2021/05/20 05:59:04;;;;;;;2.33;1.00;;;16.60;99.90;;;;;;5091518;28;20211;-63
2021/05/20 06:01:30;;;;;;;0.90;0.90;;;18.80;99.90;;;;;;5092561;28;20199;-63
2021/05/20 06:03:58;;;;;;;1.17;1.08;;;21.30;95.80;;;;;;5089724;28;20199;-63
2021/05/20 06:06:24;;;;;;;1.38;1.27;;;23.50;87.70;;;;;;5091021;28;20211;-62
2021/05/20 06:08:51;;;;;;;2.15;1.00;;;25.40;76.30;;;;;;5091392;28;20257;-64
2021/05/20 06:11:17;;;;;;;1.23;1.13;;;27.00;67.70;;;;;;5091237;28;20220;-64
2021/05/20 06:13:44;;;;;;;1.42;1.33;;;28.50;61.40;;;;;;5090917;28;20196;-64
2021/05/20 06:16:11;;;;;;;2.10;1.25;;;30.20;54.70;;;;;;5086394;28;20196;-63
2021/05/20 06:18:37;;;;;;;1.20;1.00;;;31.80;50.40;;;;;;5085790;28;20203;-63
2021/05/20 06:21:04;;;;;;;3.72;1.38;;;33.70;47.20;;;;;;5072062;28;20211;-63
2021/05/20 06:23:31;;;;;;;3.63;1.30;;;35.50;43.40;;;;;;5087381;28;20196;-64
2021/05/20 06:25:57;;;;;;;2.60;1.50;;;37.10;40.60;;;;;;5087190;28;20200;-63
2021/05/20 06:28:25;;;;;;;1.45;1.10;;;38.60;38.20;;;;;;5072037;28;20592;-63
2021/05/20 06:30:52;;;;;;;3.78;1.40;;;40.00;36.00;;;;;;5091023;28;20266;-63
2021/05/20 06:33:20;;;;;;;2.78;1.20;;;41.40;34.00;;;;;;5089936;28;20299;-62
2021/05/20 06:35:48;;;;;;;2.38;1.30;;;42.50;31.30;;;;;;5089404;28;20725;-63
2021/05/20 06:38:15;;;;;;;3.50;1.48;;;43.10;29.70;;;;;;5091076;28;20197;-63
2021/05/20 06:40:41;;;;;;;1.10;1.10;;;43.80;28.90;;;;;;5090442;28;20697;-63
2021/05/20 06:43:08;;;;;;;1.15;1.15;;;44.70;28.30;;;;;;5090807;28;20202;-63
2021/05/20 06:45:34;;;;;;;1.40;1.40;;;45.50;27.60;;;;;;5070682;28;20206;-63
2021/05/20 06:48:02;;;;;;;1.70;1.60;;;46.20;26.50;;;;;;5089911;28;20192;-63
2021/05/20 06:50:28;;;;;;;1.40;1.40;;;46.90;26.10;;;;;;5089236;28;20212;-62
2021/05/20 06:52:55;;;;;;;2.17;2.08;;;47.60;25.60;;;;;;5075066;28;20196;-63
2021/05/20 06:55:23;;;;;;;1.88;1.77;;;48.20;23.70;;;;;;5089599;28;20200;-63
2021/05/20 07:00:35;;;;;;;1.38;1.27;;;47.20;22.90;;;;;;5090221;28;20204;-63
2021/05/20 07:03:04;;;;;;;2.00;1.90;;;47.70;23.40;;;;;;5090615;28;20188;-63
2021/05/20 07:05:31;;;;;;;1.92;1.83;;;48.20;22.30;;;;;;5088883;28;20203;-63
2021/05/20 07:07:58;;;;;;;1.67;1.60;;;48.30;22.20;;;;;;5090517;28;20216;-63
2021/05/20 07:10:24;;;;;;;9.88;3.22;;;47.50;22.60;;;;;;5071574;28;20603;-63
2021/05/20 07:12:51;;;;;;;16.83;4.50;;;47.20;22.90;;;;;;5090199;28;20287;-63
2021/05/20 07:15:19;;;;;;;3.65;2.00;;;47.30;22.60;;;;;;5089232;28;20204;-64
2021/05/20 07:17:45;;;;;;;2.22;1.67;;;47.20;22.80;;;;;;5090102;28;20196;-63
2021/05/20 07:20:14;;;;;;;1.92;1.88;;;46.20;23.60;;;;;;5063830;28;20287;-63
2021/05/20 07:22:41;;;;;;;1.80;1.70;;;46.00;22.90;;;;;;5087679;28;20195;-63
2021/05/20 07:25:08;;;;;;;43.40;8.07;;;45.40;22.90;;;;;;5088579;28;20247;-62
2021/05/20 07:27:35;;;;;;;15.90;3.75;;;43.90;23.20;;;;;;5089584;28;20575;-63
2021/05/20 07:30:03;;;;;;;2.17;1.60;;;41.70;24.00;;;;;;5089988;28;20215;-62
2021/05/20 07:32:30;;;;;;;1.45;1.30;;;39.50;25.10;;;;;;5088236;28;20198;-62
2021/05/20 07:34:57;;;;;;;1.65;1.55;;;37.60;26.10;;;;;;5069636;28;20203;-63
2021/05/20 07:37:24;;;;;;;1.70;1.60;;;35.90;26.90;;;;;;5088960;28;20204;-62
2021/05/20 07:39:50;;;;;;;1.75;1.48;;;34.70;27.70;;;;;;5078962;28;20196;-63
2021/05/20 07:42:19;;;;;;;1.40;1.40;;;33.70;28.50;;;;;;5089240;28;20230;-62
2021/05/20 07:44:47;;;;;;;1.52;1.42;;;32.70;29.00;;;;;;5089081;28;20189;-63
2021/05/20 07:47:16;;;;;;;1.30;1.20;;;31.40;29.10;;;;;;5089175;28;20192;-62
2021/05/20 07:49:42;;;;;;;1.30;1.20;;;30.50;30.00;;;;;;5088005;28;20681;-62
2021/05/20 07:52:09;;;;;;;0.95;0.95;;;29.90;31.00;;;;;;5088951;28;20228;-64
2021/05/20 07:54:36;;;;;;;1.23;0.90;;;29.50;31.60;;;;;;5083058;28;20644;-63
2021/05/20 07:57:03;;;;;;;1.02;0.90;;;29.10;32.60;;;;;;5080624;28;20764;-63
2021/05/20 07:59:30;;;;;;;2.35;0.80;;;29.10;32.50;;;;;;5069115;28;21414;-63
2021/05/20 08:02:04;;;;;;;1.25;1.25;;;28.70;32.50;;;;;;5065771;28;20844;-63
2021/05/20 08:04:32;;;;;;;1.70;0.90;;;28.50;32.70;;;;;;5083341;28;20193;-63
2021/05/20 08:07:04;;;;;;;0.73;0.73;;;28.10;32.90;;;;;;5071997;28;20276;-62
2021/05/20 08:09:33;;;;;;;1.65;0.95;;;27.80;33.20;;;;;;5074745;28;20238;-62
2021/05/20 08:12:00;;;;;;;37.13;6.25;;;27.70;33.50;;;;;;5088825;28;20250;-62
2021/05/20 08:14:27;;;;;;;48.13;8.57;;;27.60;33.60;;;;;;5088861;28;20286;-62
2021/05/20 08:16:53;;;;;;;3.28;1.50;;;27.40;33.70;;;;;;5088572;28;20446;-62
2021/05/20 08:19:20;;;;;;;0.98;0.98;;;27.30;34.00;;;;;;5081440;28;20229;-63
2021/05/20 08:21:49;;;;;;;2.08;1.02;;;27.20;34.10;;;;;;5087937;28;20201;-62
2021/05/20 08:24:15;;;;;;;1.15;1.08;;;27.00;34.50;;;;;;5086800;28;20200;-63
2021/05/20 08:26:42;;;;;;;1.15;1.10;;;26.70;34.70;;;;;;5088350;28;20628;-62
2021/05/20 08:29:09;;;;;;;1.95;1.05;;;26.40;35.10;;;;;;5075214;28;20279;-61
2021/05/20 08:31:37;;;;;;;1.25;1.25;;;26.40;35.60;;;;;;5089522;28;20553;-62
2021/05/20 08:34:04;;;;;;;1.50;1.35;;;26.40;35.60;;;;;;5086314;28;20197;-63
2021/05/20 08:36:31;;;;;;;1.13;1.13;;;26.10;35.40;;;;;;5088215;28;20199;-61
2021/05/20 08:38:58;;;;;;;1.20;1.10;;;25.90;35.80;;;;;;5088661;28;20516;-62
2021/05/20 08:41:25;;;;;;;1.48;1.23;;;25.90;36.10;;;;;;5088209;28;20311;-63
2021/05/20 08:43:51;;;;;;;0.90;0.90;;;26.10;36.40;;;;;;5088988;28;20275;-63
2021/05/20 08:46:26;;;;;;;1.20;1.10;;;26.50;36.60;;;;;;5082474;28;20264;-63
2021/05/20 08:48:52;;;;;;;1.08;0.98;;;27.00;36.10;;;;;;5087300;28;20219;-61
2021/05/20 08:51:19;;;;;;;1.52;0.80;;;27.30;35.40;;;;;;5088413;28;20334;-62
2021/05/20 08:53:47;;;;;;;0.90;0.90;;;27.30;35.10;;;;;;5089150;28;20745;-62
2021/05/20 08:56:13;;;;;;;0.90;0.90;;;27.10;35.00;;;;;;5087304;28;20200;-63
2021/05/20 08:58:40;;;;;;;6.10;1.75;;;26.90;35.10;;;;;;5088896;28;20279;-61
2021/05/20 09:01:06;;;;;;;18.88;4.43;;;27.40;34.80;;;;;;5088292;28;20537;-62
2021/05/20 09:03:33;;;;;;;58.75;8.40;;;28.80;33.70;;;;;;5087427;28;20259;-63
2021/05/20 09:06:04;;;;;;;4.47;1.38;;;29.90;32.50;;;;;;5072598;28;20235;-64
2021/05/20 09:08:32;;;;;;;0.95;0.70;;;30.90;31.60;;;;;;5086406;28;20253;-63
2021/05/20 09:10:59;;;;;;;0.80;0.80;;;32.20;30.60;;;;;;5088514;28;20786;-63
2021/05/20 09:13:33;;;;;;;4.57;0.77;;;33.60;29.80;;;;;;5091682;28;20279;-63
2021/05/20 09:16:12;;;;;;;1.15;1.15;;;34.30;28.90;;;;;;5091727;28;20668;-63
2021/05/20 09:18:41;;;;;;;0.93;0.93;;;34.60;28.70;;;;;;5090616;28;20225;-62
2021/05/20 09:21:09;;;;;;;0.75;0.75;;;35.10;28.30;;;;;;5091260;28;20269;-63
2021/05/20 09:23:47;;;;;;;0.85;0.75;;;34.10;28.50;;;;;;5086343;28;20192;-62
2021/05/20 09:26:14;;;;;;;0.90;0.90;;;32.90;29.10;;;;;;5087874;28;20204;-62
2021/05/20 09:28:42;;;;;;;0.95;0.90;;;31.70;30.00;;;;;;5091200;28;20208;-63
2021/05/20 09:31:09;;;;;;;0.93;0.93;;;30.50;29.90;;;;;;5092189;28;20657;-63
2021/05/20 09:33:36;;;;;;;0.90;0.75;;;29.50;30.40;;;;;;5090602;28;20315;-63
2021/05/20 09:36:04;;;;;;;1.05;0.90;;;28.70;31.00;;;;;;5072912;28;20278;-61
2021/05/20 09:38:36;;;;;;;3.20;0.90;;;28.20;31.60;;;;;;5091567;28;20279;-62
2021/05/20 09:41:03;;;;;;;0.70;0.70;;;27.70;32.30;;;;;;5083244;28;20221;-62
2021/05/20 09:43:32;;;;;;;0.80;0.80;;;27.30;32.80;;;;;;5091712;28;20192;-62
2021/05/20 09:46:00;;;;;;;1.25;0.80;;;27.30;33.10;;;;;;5073676;28;20224;-63
2021/05/20 09:48:34;;;;;;;1.00;1.00;;;27.00;33.30;;;;;;5090656;28;20231;-62
2021/05/20 09:51:01;;;;;;;0.95;0.73;;;26.60;33.70;;;;;;5072800;28;20276;-62
2021/05/20 09:53:29;;;;;;;0.90;0.70;;;26.20;33.80;;;;;;5091975;28;20192;-62
2021/05/20 09:55:58;;;;;;;1.67;0.80;;;25.70;34.20;;;;;;5091038;28;20203;-63
2021/05/20 09:58:26;;;;;;;0.80;0.80;;;25.30;34.80;;;;;;5091333;28;20285;-63
2021/05/20 10:00:53;;;;;;;0.95;0.70;;;25.00;35.20;;;;;;5091344;28;20652;-61
2021/05/20 10:03:21;;;;;;;1.05;0.90;;;24.90;35.60;;;;;;5091317;28;20381;-62
2021/05/20 10:05:48;;;;;;;0.60;0.60;;;24.80;35.60;;;;;;5086853;28;20246;-62
2021/05/20 10:08:16;;;;;;;2.60;0.80;;;24.80;35.20;;;;;;5078961;28;20676;-61
2021/05/20 10:10:45;;;;;;;0.75;0.70;;;24.70;35.00;;;;;;5074846;28;20248;-62
2021/05/20 10:13:14;;;;;;;1.90;0.90;;;24.70;35.00;;;;;;5091279;28;20602;-62
2021/05/20 10:15:41;;;;;;;0.75;0.60;;;25.10;35.30;;;;;;5090686;28;20284;-63
2021/05/20 10:18:10;;;;;;;1.40;0.93;;;25.60;35.20;;;;;;5090615;28;20228;-63
2021/05/20 10:20:38;;;;;;;1.27;0.80;;;25.90;34.80;;;;;;5082224;28;20189;-63
2021/05/20 10:23:10;;;;;;;0.90;0.70;;;26.20;34.90;;;;;;5091239;28;20200;-63
2021/05/20 10:25:37;;;;;;;0.82;0.60;;;26.70;34.70;;;;;;5090142;28;20245;-63
2021/05/20 10:28:05;;;;;;;0.85;0.60;;;26.90;34.60;;;;;;5090681;28;20220;-63
2021/05/20 10:30:33;;;;;;;1.00;0.70;;;26.60;34.70;;;;;;5100266;28;20249;-63
2021/05/20 10:33:00;;;;;;;0.70;0.70;;;26.30;34.90;;;;;;5083042;28;20216;-63
2021/05/20 10:35:39;;;;;;;0.60;0.60;;;26.00;35.00;;;;;;5089163;28;20670;-62
2021/05/20 10:38:06;;;;;;;0.85;0.85;;;26.00;34.50;;;;;;5090624;28;20253;-62
2021/05/20 10:40:34;;;;;;;1.27;0.70;;;27.90;33.50;;;;;;5090778;28;20271;-63
2021/05/20 10:43:13;;;;;;;4.80;0.80;;;30.60;31.10;;;;;;5090602;28;20556;-63
2021/05/20 10:45:41;;;;;;;0.80;0.80;;;32.30;29.00;;;;;;5086054;28;20200;-62
2021/05/20 10:48:23;;;;;;;0.60;0.60;;;32.30;28.70;;;;;;5090387;28;20336;-63
2021/05/20 10:51:01;;;;;;;1.35;0.77;;;31.50;28.90;;;;;;5089871;28;20224;-62
2021/05/20 10:53:55;;;;;;;1.90;0.70;;;31.00;29.10;;;;;;5074736;28;20220;-62
2021/05/20 10:56:50;;;;;;;0.75;0.75;;;30.80;29.20;;;;;;5089703;28;20231;-62
2021/05/20 10:59:48;;;;;;;4.63;0.75;;;30.40;29.50;;;;;;5090091;28;20196;-62
2021/05/20 11:02:54;;;;;;;1.20;0.90;;;31.70;29.50;;;;;;5090187;28;20228;-62
2021/05/20 11:05:56;;;;;;;1.33;1.20;;;33.50;28.90;;;;;;5084245;28;20238;-63
2021/05/20 11:08:55;;;;;;;0.82;0.82;;;32.60;28.10;;;;;;5080439;28;20204;-62
2021/05/20 11:11:25;;;;;;;0.63;0.63;;;31.10;28.90;;;;;;5086215;28;20380;-62
2021/05/20 11:13:51;;;;;;;1.10;0.80;;;29.80;29.70;;;;;;5090263;28;20276;-63
2021/05/20 11:16:19;;;;;;;0.80;0.65;;;28.80;30.30;;;;;;5078732;28;20197;-63
2021/05/20 11:18:48;;;;;;;0.60;0.60;;;28.10;31.00;;;;;;5087373;28;20261;-62
2021/05/20 11:21:15;;;;;;;0.70;0.70;;;27.50;32.00;;;;;;5095528;28;20625;-62
2021/05/20 11:23:41;;;;;;;1.10;0.60;;;26.80;31.70;;;;;;5073970;28;20189;-62
2021/05/20 11:26:16;;;;;;;0.70;0.70;;;26.40;32.50;;;;;;5074559;28;20201;-63
2021/05/20 11:29:10;;;;;;;1.25;0.70;;;26.00;32.90;;;;;;5062865;28;20206;-64
2021/05/20 11:31:41;;;;;;;0.65;0.65;;;25.70;33.50;;;;;;5076363;28;20273;-63
2021/05/20 11:36:52;;;;;;;0.75;0.60;;;25.40;35.10;;;;;;5064987;28;20586;-65
2021/05/20 11:39:21;;;;;;;0.90;0.90;;;25.80;34.50;;;;;;5078514;28;20235;-65
2021/05/20 11:41:48;;;;;;;0.77;0.77;;;26.20;34.30;;;;;;5075932;28;20327;-65
2021/05/20 11:44:17;;;;;;;0.98;0.98;;;26.80;33.20;;;;;;5074773;28;20196;-65
2021/05/20 11:47:01;;;;;;;1.00;0.90;;;27.60;31.90;;;;;;5060844;28;20311;-64
2021/05/20 11:49:28;;;;;;;1.40;0.90;;;28.30;31.30;;;;;;5067662;28;20201;-66
2021/05/20 11:51:56;;;;;;;0.90;0.90;;;28.70;30.50;;;;;;5065583;28;20330;-65
2021/05/20 11:54:25;;;;;;;0.85;0.85;;;28.90;30.10;;;;;;5069509;28;20680;-65
2021/05/20 11:56:53;;;;;;;0.73;0.73;;;29.40;30.10;;;;;;5071935;28;20192;-66
2021/05/20 11:59:43;;;;;;;0.80;0.80;;;29.90;30.00;;;;;;5050666;28;20197;-66
2021/05/20 12:02:12;;;;;;;0.73;0.73;;;30.40;30.50;;;;;;5076834;28;20203;-66
2021/05/20 12:04:39;;;;;;;1.02;1.02;;;30.70;30.30;;;;;;5076346;28;20626;-66
2021/05/20 12:07:07;;;;;;;1.23;0.80;;;30.50;30.20;;;;;;5071217;28;20204;-64
2021/05/20 12:09:34;;;;;;;0.80;0.80;;;29.90;30.50;;;;;;5067290;28;20193;-63
2021/05/20 12:12:11;;;;;;;0.93;0.90;;;29.30;30.70;;;;;;5070836;28;20219;-64
2021/05/20 12:14:39;;;;;;;1.08;1.08;;;28.50;31.40;;;;;;5076527;28;20655;-63
2021/05/20 12:17:08;;;;;;;1.00;1.00;;;27.80;32.00;;;;;;5075042;28;20287;-64
2021/05/20 12:19:41;;;;;;;1.38;1.08;;;27.00;32.50;;;;;;5072871;28;20196;-64
2021/05/20 12:22:16;;;;;;;0.90;0.90;;;26.10;33.30;;;;;;5082580;28;20281;-63
2021/05/20 12:24:45;;;;;;;0.73;0.70;;;25.30;34.00;;;;;;5076074;28;20204;-66
2021/05/20 12:27:14;;;;;;;0.70;0.70;;;24.80;34.60;;;;;;5074071;28;20714;-64
2021/05/20 12:29:42;;;;;;;0.75;0.75;;;24.60;35.00;;;;;;5073447;28;20207;-65
2021/05/20 12:32:34;;;;;;;0.60;0.60;;;24.50;35.20;;;;;;5075075;28;20294;-65
2021/05/20 12:35:24;;;;;;;0.70;0.70;;;24.50;35.20;;;;;;5067232;28;20569;-65
2021/05/20 12:38:03;;;;;;;0.73;0.73;;;24.50;35.30;;;;;;5074660;28;20724;-66
2021/05/20 12:40:33;;;;;;;0.77;0.70;;;24.50;35.20;;;;;;5079781;28;20204;-64
2021/05/20 12:43:15;;;;;;;0.70;0.70;;;24.70;35.40;;;;;;5080656;28;20232;-66
2021/05/20 12:45:49;;;;;;;1.73;0.75;;;24.70;35.50;;;;;;5072536;28;20211;-63
2021/05/20 12:48:35;;;;;;;0.77;0.77;;;24.60;35.40;;;;;;5083074;28;20194;-65
2021/05/20 12:51:05;;;;;;;2.40;0.85;;;24.60;35.30;;;;;;5072633;28;20314;-65
2021/05/20 12:53:35;;;;;;;0.60;0.60;;;24.60;35.40;;;;;;5076481;28;20196;-66
2021/05/20 12:56:06;;;;;;;1.90;0.60;;;24.60;35.50;;;;;;5078507;28;20216;-66
2021/05/20 12:58:53;;;;;;;2.33;1.33;;;24.70;35.60;;;;;;5081516;28;20197;-65